Time;durP1;ratioP1;P1;durP2;ratioP2;P2;SDS_P1;SDS_P2;PMS_P1;PMS_P2;Temp;Humidity;BMP_temperature;BMP_pressure;BME280_temperature;BME280_humidity;BME280_pressure;Samples;Min_cycle;Max_cycle;Signal;HPM_P1;HPM_P2
2022/03/16 00:02:20;;;;;;;0.60;0.60;;;5.60;99.90;;;;;;4967355;28;20042;-70
2022/03/16 00:04:56;;;;;;;4.32;3.55;;;5.60;99.90;;;;;;4963562;28;20078;-70
2022/03/16 00:07:23;;;;;;;0.40;0.40;;;5.50;99.90;;;;;;4983360;28;20135;-70
2022/03/16 00:09:49;;;;;;;2.05;1.67;;;5.50;99.90;;;;;;4959603;28;20050;-70
2022/03/16 00:12:15;;;;;;;4.03;3.25;;;5.50;99.90;;;;;;4982172;28;20497;-70
2022/03/16 00:14:42;;;;;;;1.80;1.67;;;5.40;99.90;;;;;;4971000;28;20047;-70
2022/03/16 00:17:20;;;;;;;4.80;2.83;;;5.40;99.90;;;;;;4963163;28;20044;-70
2022/03/16 00:19:55;;;;;;;0.70;0.70;;;5.40;99.90;;;;;;4956934;28;20105;-70
2022/03/16 00:22:20;;;;;;;0.40;0.40;;;5.30;99.90;;;;;;4938970;28;20042;-70
2022/03/16 00:24:46;;;;;;;14.75;2.10;;;5.30;99.90;;;;;;4984893;28;20038;-70
2022/03/16 00:27:12;;;;;;;0.20;0.20;;;5.30;99.90;;;;;;4955999;28;20038;-70
2022/03/16 00:29:37;;;;;;;1.15;1.15;;;5.30;99.90;;;;;;4962020;28;20109;-70
2022/03/16 00:32:03;;;;;;;1.65;0.77;;;5.20;99.90;;;;;;4975724;28;20046;-70
2022/03/16 00:34:30;;;;;;;1.33;1.30;;;5.20;99.90;;;;;;4983730;28;20042;-70
2022/03/16 00:36:57;;;;;;;2.60;2.40;;;5.20;99.90;;;;;;4963817;28;20287;-70
2022/03/16 00:39:40;;;;;;;5.28;3.50;;;5.20;99.90;;;;;;4967304;28;20044;-70
2022/03/16 00:42:06;;;;;;;3.75;2.92;;;5.20;99.90;;;;;;4984857;28;20059;-70
2022/03/16 00:44:35;;;;;;;7.32;4.97;;;5.20;99.90;;;;;;4966937;28;20050;-70
2022/03/16 00:47:01;;;;;;;4.65;2.42;;;5.20;99.90;;;;;;4953439;28;20470;-70
2022/03/16 00:49:27;;;;;;;8.90;3.88;;;5.20;99.90;;;;;;4959539;28;20221;-70
2022/03/16 00:51:52;;;;;;;10.32;3.58;;;5.20;99.90;;;;;;4959724;28;20166;-70
2022/03/16 00:54:18;;;;;;;2.67;2.47;;;5.20;99.90;;;;;;4988104;28;20053;-70
2022/03/16 00:56:43;;;;;;;0.40;0.40;;;5.20;99.90;;;;;;4950211;28;20039;-70
2022/03/16 00:59:09;;;;;;;1.23;1.23;;;5.10;99.90;;;;;;4949346;28;20053;-70
2022/03/16 01:01:36;;;;;;;4.13;2.15;;;5.10;99.90;;;;;;4951843;28;20039;-70
2022/03/16 01:04:01;;;;;;;3.10;1.02;;;5.00;99.90;;;;;;4948769;28;20054;-68
2022/03/16 01:06:27;;;;;;;0.73;0.73;;;5.00;99.90;;;;;;4950199;28;20030;-68
2022/03/16 01:08:52;;;;;;;0.47;0.47;;;4.90;99.90;;;;;;4945681;28;20442;-68
2022/03/16 01:11:18;;;;;;;0.30;0.30;;;4.90;99.90;;;;;;4965043;28;20046;-69
2022/03/16 01:13:44;;;;;;;0.30;0.30;;;4.90;99.90;;;;;;4930959;28;20041;-68
2022/03/16 01:16:10;;;;;;;1.02;1.02;;;4.80;99.90;;;;;;4987264;28;20758;-68
2022/03/16 01:18:36;;;;;;;3.03;1.85;;;4.70;99.90;;;;;;4951656;28;20496;-68
2022/03/16 01:21:04;;;;;;;4.57;3.03;;;4.70;99.90;;;;;;4982506;28;20044;-68
2022/03/16 01:23:30;;;;;;;0.30;0.30;;;4.70;99.90;;;;;;4961164;28;20105;-69
2022/03/16 01:25:55;;;;;;;4.65;3.33;;;4.70;99.90;;;;;;4986610;28;20038;-68
2022/03/16 01:28:21;;;;;;;4.25;3.70;;;4.80;99.90;;;;;;4983630;28;20108;-68
2022/03/16 01:30:46;;;;;;;3.15;2.15;;;4.80;99.90;;;;;;4966687;28;20574;-68
2022/03/16 01:33:12;;;;;;;0.80;0.80;;;4.90;99.90;;;;;;4967324;28;20524;-68
2022/03/16 01:35:37;;;;;;;1.33;1.23;;;4.90;99.90;;;;;;4948048;28;20038;-68
2022/03/16 01:38:03;;;;;;;4.05;2.65;;;4.90;99.90;;;;;;4973438;28;20129;-68
2022/03/16 01:40:29;;;;;;;1.30;1.23;;;4.90;99.90;;;;;;4961403;28;20062;-68
2022/03/16 01:42:54;;;;;;;0.25;0.25;;;4.90;99.90;;;;;;4955821;28;20460;-68
2022/03/16 01:45:20;;;;;;;3.92;2.28;;;4.90;99.90;;;;;;4987204;28;20077;-69
2022/03/16 01:47:45;;;;;;;4.60;0.95;;;4.90;99.90;;;;;;4959436;28;20308;-68
2022/03/16 01:50:11;;;;;;;8.63;2.65;;;4.80;99.90;;;;;;4952340;28;20097;-68
2022/03/16 01:52:40;;;;;;;19.30;10.20;;;4.80;99.90;;;;;;4961078;28;20126;-68
2022/03/16 01:55:06;;;;;;;1.83;1.73;;;4.70;99.90;;;;;;4983065;28;20035;-68
2022/03/16 01:57:34;;;;;;;10.45;6.10;;;4.60;99.90;;;;;;4964060;28;20038;-68
2022/03/16 02:00:00;;;;;;;3.92;3.53;;;4.70;99.90;;;;;;4973996;28;20053;-68
2022/03/16 02:02:25;;;;;;;1.75;1.65;;;4.70;99.90;;;;;;4974669;28;20042;-68
2022/03/16 02:04:51;;;;;;;0.85;0.85;;;4.70;99.90;;;;;;4982763;28;20038;-68
2022/03/16 02:07:17;;;;;;;0.30;0.30;;;4.60;99.90;;;;;;4977289;28;20478;-68
2022/03/16 02:09:42;;;;;;;3.65;3.35;;;4.50;99.90;;;;;;4963521;28;20084;-68
2022/03/16 02:12:14;;;;;;;6.47;4.45;;;4.50;99.90;;;;;;4958287;28;20046;-68
2022/03/16 02:14:40;;;;;;;12.27;6.93;;;4.50;99.90;;;;;;4968425;28;20100;-68
2022/03/16 02:17:05;;;;;;;4.22;3.83;;;4.40;99.90;;;;;;4960946;28;20046;-68
2022/03/16 02:19:32;;;;;;;18.42;9.15;;;4.40;99.90;;;;;;4985707;28;20034;-68
2022/03/16 02:22:01;;;;;;;8.75;5.68;;;4.40;99.90;;;;;;4939224;28;20046;-68
2022/03/16 02:24:29;;;;;;;4.78;4.20;;;4.30;99.90;;;;;;4953141;28;20436;-68
2022/03/16 02:26:56;;;;;;;21.85;4.97;;;4.20;99.90;;;;;;4950277;28;20558;-68
2022/03/16 02:29:22;;;;;;;16.30;7.80;;;4.10;99.90;;;;;;4965386;28;20129;-68
2022/03/16 02:31:47;;;;;;;9.35;6.38;;;4.10;99.90;;;;;;4952332;28;20482;-68
2022/03/16 02:34:13;;;;;;;3.47;3.25;;;4.00;99.90;;;;;;4942819;28;20470;-68
2022/03/16 02:36:39;;;;;;;12.35;7.20;;;3.90;99.90;;;;;;4968521;28;20510;-68
2022/03/16 02:39:04;;;;;;;4.97;4.32;;;3.90;99.90;;;;;;4973193;28;20509;-68
2022/03/16 02:41:30;;;;;;;0.63;0.63;;;3.90;99.90;;;;;;4969882;28;20058;-68
2022/03/16 02:43:56;;;;;;;1.00;1.00;;;3.90;99.90;;;;;;4969766;28;20042;-67
2022/03/16 02:46:22;;;;;;;0.47;0.47;;;3.80;99.90;;;;;;4971557;28;20733;-67
2022/03/16 02:49:08;;;;;;;0.52;0.52;;;3.70;99.90;;;;;;4944158;28;20142;-68
2022/03/16 02:51:33;;;;;;;1.02;0.93;;;3.60;99.90;;;;;;4965775;28;20053;-68
2022/03/16 02:53:59;;;;;;;0.30;0.30;;;3.50;99.90;;;;;;4964167;28;20486;-67
2022/03/16 02:56:27;;;;;;;11.73;3.33;;;3.50;99.90;;;;;;4967525;28;20042;-68
2022/03/16 02:58:52;;;;;;;0.50;0.50;;;3.40;99.90;;;;;;4959689;28;20081;-68
2022/03/16 03:01:18;;;;;;;1.10;1.10;;;3.40;99.90;;;;;;4983716;28;20046;-68
2022/03/16 03:03:44;;;;;;;0.30;0.30;;;3.50;99.90;;;;;;4949034;28;20049;-68
2022/03/16 03:06:09;;;;;;;0.30;0.30;;;3.50;99.90;;;;;;4984097;28;20046;-68
2022/03/16 03:08:35;;;;;;;1.13;1.13;;;3.60;99.90;;;;;;4986322;28;20516;-68
2022/03/16 03:11:00;;;;;;;1.70;1.60;;;3.60;99.90;;;;;;4952876;28;20064;-68
2022/03/16 03:13:27;;;;;;;0.77;0.77;;;3.70;99.90;;;;;;4971439;28;20088;-68
2022/03/16 03:15:53;;;;;;;2.13;1.23;;;3.80;99.90;;;;;;4980891;28;20074;-68
2022/03/16 03:18:18;;;;;;;0.77;0.77;;;3.90;99.90;;;;;;4950426;28;20411;-68
2022/03/16 03:20:44;;;;;;;0.30;0.30;;;4.00;99.90;;;;;;4978846;28;20801;-68
2022/03/16 03:23:10;;;;;;;1.60;1.50;;;4.00;99.90;;;;;;4964476;28;20070;-68
2022/03/16 03:25:35;;;;;;;0.60;0.60;;;4.00;99.90;;;;;;4982157;28;20056;-68
2022/03/16 03:28:01;;;;;;;6.00;4.25;;;4.10;99.90;;;;;;4972665;28;20082;-68
2022/03/16 03:30:26;;;;;;;8.82;5.28;;;4.00;99.90;;;;;;4967779;28;20046;-68
2022/03/16 03:32:52;;;;;;;7.63;6.30;;;4.10;99.90;;;;;;4979956;28;20073;-68
2022/03/16 03:35:18;;;;;;;12.98;7.18;;;4.10;99.90;;;;;;4985151;28;20042;-69
2022/03/16 03:37:43;;;;;;;9.57;4.65;;;4.10;99.90;;;;;;4944436;28;20041;-69
2022/03/16 03:40:10;;;;;;;2.53;2.30;;;4.10;99.90;;;;;;4969644;28;20533;-68
2022/03/16 03:42:35;;;;;;;3.58;3.33;;;4.20;99.90;;;;;;4952932;28;20046;-69
2022/03/16 03:45:01;;;;;;;7.63;5.40;;;4.10;99.90;;;;;;4974710;28;20053;-69
2022/03/16 03:47:27;;;;;;;10.93;7.70;;;4.00;99.90;;;;;;4954625;28;20042;-69
2022/03/16 03:49:53;;;;;;;5.78;3.17;;;3.90;99.90;;;;;;4978622;28;20046;-69
2022/03/16 03:52:18;;;;;;;2.65;2.42;;;3.80;99.90;;;;;;4984707;28;20046;-69
2022/03/16 03:54:44;;;;;;;1.13;1.13;;;3.70;99.90;;;;;;4969928;28;20088;-69
2022/03/16 03:57:09;;;;;;;1.52;1.42;;;3.50;99.90;;;;;;4966359;28;20449;-69
2022/03/16 03:59:35;;;;;;;0.50;0.50;;;3.30;99.90;;;;;;4960838;28;20489;-68
2022/03/16 04:02:01;;;;;;;0.30;0.30;;;3.20;99.90;;;;;;4952956;28;20654;-68
2022/03/16 04:04:27;;;;;;;1.85;1.75;;;3.00;99.90;;;;;;4984729;28;20050;-68
2022/03/16 04:06:52;;;;;;;0.73;0.73;;;3.00;99.90;;;;;;4961719;28;20050;-69
2022/03/16 04:09:18;;;;;;;1.38;1.27;;;2.90;99.90;;;;;;4947511;28;20053;-68
2022/03/16 04:11:43;;;;;;;1.08;0.98;;;2.90;99.90;;;;;;4968423;28;20573;-68
2022/03/16 04:14:10;;;;;;;0.40;0.40;;;2.80;99.90;;;;;;4987538;28;20575;-68
2022/03/16 04:16:35;;;;;;;0.63;0.63;;;2.80;99.90;;;;;;4959214;28;21352;-68
2022/03/16 04:19:01;;;;;;;1.85;1.13;;;2.80;99.90;;;;;;4983531;28;20454;-67
2022/03/16 04:21:27;;;;;;;1.23;1.23;;;2.70;99.90;;;;;;4958274;28;20146;-68
2022/03/16 04:23:54;;;;;;;0.40;0.40;;;2.80;99.90;;;;;;4967248;28;20047;-68
2022/03/16 04:26:19;;;;;;;0.30;0.30;;;2.70;99.90;;;;;;4980665;28;20054;-68
2022/03/16 04:28:45;;;;;;;0.47;0.47;;;2.80;99.90;;;;;;4956752;28;20042;-68
2022/03/16 04:31:11;;;;;;;0.75;0.75;;;2.70;99.90;;;;;;4978505;28;20046;-68
2022/03/16 04:33:37;;;;;;;0.30;0.30;;;2.80;99.90;;;;;;4981078;28;20426;-68
2022/03/16 04:36:04;;;;;;;0.38;0.38;;;2.80;99.90;;;;;;4953324;28;20045;-68
2022/03/16 04:38:30;;;;;;;0.40;0.40;;;2.80;99.90;;;;;;4963106;28;20038;-68
2022/03/16 04:40:56;;;;;;;0.73;0.73;;;2.80;99.90;;;;;;4988718;28;20384;-68
2022/03/16 04:43:21;;;;;;;0.40;0.40;;;2.90;99.90;;;;;;4966137;28;20050;-68
2022/03/16 04:45:47;;;;;;;0.60;0.60;;;2.80;99.90;;;;;;4987054;28;20046;-68
2022/03/16 04:48:13;;;;;;;3.13;1.55;;;2.80;99.90;;;;;;4971583;28;20163;-68
2022/03/16 04:50:41;;;;;;;0.98;0.98;;;2.80;99.90;;;;;;4951038;28;20042;-68
2022/03/16 04:53:07;;;;;;;0.85;0.85;;;2.80;99.90;;;;;;4940567;28;20791;-68
2022/03/16 04:55:36;;;;;;;0.30;0.30;;;2.80;99.90;;;;;;4985431;28;20042;-68
2022/03/16 04:58:05;;;;;;;2.08;1.77;;;2.80;99.90;;;;;;4958662;28;20112;-68
2022/03/16 05:00:31;;;;;;;0.65;0.65;;;2.80;99.90;;;;;;4978602;28;20049;-68
2022/03/16 05:02:56;;;;;;;0.50;0.50;;;2.80;99.90;;;;;;4952033;28;20533;-68
2022/03/16 05:05:22;;;;;;;0.85;0.85;;;2.80;99.90;;;;;;4941706;28;20699;-68
2022/03/16 05:07:48;;;;;;;0.70;0.70;;;2.80;99.90;;;;;;4987848;28;20137;-68
2022/03/16 05:10:14;;;;;;;0.98;0.90;;;2.90;99.90;;;;;;4983471;28;20057;-68
2022/03/16 05:12:40;;;;;;;0.30;0.30;;;2.90;99.90;;;;;;4957023;28;20081;-68
2022/03/16 05:15:10;;;;;;;0.55;0.55;;;2.90;99.90;;;;;;4973439;28;20371;-68
2022/03/16 05:17:37;;;;;;;2.75;1.85;;;2.90;99.90;;;;;;4983556;28;20094;-68
2022/03/16 05:20:04;;;;;;;7.80;5.70;;;2.90;99.90;;;;;;4986319;28;20042;-68
2022/03/16 05:22:30;;;;;;;9.85;6.22;;;3.00;99.90;;;;;;4986748;28;20623;-68
2022/03/16 05:24:55;;;;;;;3.42;3.13;;;3.00;99.90;;;;;;4970765;28;20121;-68
2022/03/16 05:27:21;;;;;;;7.95;4.32;;;3.00;99.90;;;;;;4984956;28;20044;-68
2022/03/16 05:29:47;;;;;;;5.32;2.70;;;3.00;99.90;;;;;;4954861;28;20503;-68
2022/03/16 05:32:15;;;;;;;3.63;2.90;;;3.10;99.90;;;;;;4974219;28;20251;-68
2022/03/16 05:35:23;;;;;;;9.40;5.25;;;3.10;99.90;;;;;;4958320;28;20287;-68
2022/03/16 05:37:48;;;;;;;8.85;2.88;;;3.10;99.90;;;;;;4899322;29;20052;-70
2022/03/16 05:40:14;;;;;;;13.02;6.63;;;3.00;99.90;;;;;;4863192;29;20398;-70
2022/03/16 05:42:40;;;;;;;6.70;4.88;;;3.10;99.90;;;;;;4905422;29;20056;-70
2022/03/16 05:45:06;;;;;;;10.27;5.88;;;3.20;99.90;;;;;;4908578;29;20064;-70
2022/03/16 05:47:32;;;;;;;7.85;4.97;;;3.20;99.90;;;;;;4892458;29;20057;-70
2022/03/16 05:49:58;;;;;;;10.07;5.40;;;3.20;99.90;;;;;;4908443;29;20063;-70
2022/03/16 05:52:25;;;;;;;2.35;2.15;;;3.20;99.90;;;;;;4907274;29;20052;-70
2022/03/16 05:54:54;;;;;;;0.40;0.40;;;3.30;99.90;;;;;;4902704;29;20059;-70
2022/03/16 05:57:20;;;;;;;2.35;2.15;;;3.30;99.90;;;;;;4908178;29;20059;-70
2022/03/16 05:59:47;;;;;;;1.73;1.63;;;3.40;99.90;;;;;;4892393;29;20429;-70
2022/03/16 06:02:13;;;;;;;1.83;1.35;;;3.40;99.90;;;;;;4907170;29;20059;-70
2022/03/16 06:04:40;;;;;;;6.53;4.07;;;3.40;99.90;;;;;;4891702;29;20047;-70
2022/03/16 06:07:07;;;;;;;0.93;0.93;;;3.40;99.90;;;;;;4908360;29;20560;-70
2022/03/16 06:09:33;;;;;;;1.20;1.10;;;3.40;99.90;;;;;;4909182;29;20089;-70
2022/03/16 06:11:59;;;;;;;2.05;1.23;;;3.50;99.90;;;;;;4896038;29;20076;-70
2022/03/16 06:14:25;;;;;;;1.30;1.23;;;3.50;99.90;;;;;;4921779;28;20057;-70
2022/03/16 06:16:52;;;;;;;3.45;1.48;;;3.50;99.90;;;;;;4953975;28;20038;-70
2022/03/16 06:19:19;;;;;;;1.65;1.30;;;3.60;99.90;;;;;;4965418;28;20051;-70
2022/03/16 06:21:44;;;;;;;13.15;5.25;;;3.60;99.90;;;;;;4983117;28;20035;-70
2022/03/16 06:24:11;;;;;;;0.57;0.57;;;3.60;99.90;;;;;;4971563;28;20049;-70
2022/03/16 06:26:37;;;;;;;11.75;1.98;;;3.60;99.90;;;;;;4960972;28;20057;-70
2022/03/16 06:29:03;;;;;;;1.67;1.60;;;3.70;99.90;;;;;;4947985;28;20046;-70
2022/03/16 06:31:28;;;;;;;4.50;1.45;;;3.70;99.90;;;;;;4975590;28;20047;-70
2022/03/16 06:33:54;;;;;;;5.05;4.57;;;3.80;99.90;;;;;;4959658;28;20523;-70
2022/03/16 06:36:19;;;;;;;0.60;0.60;;;3.90;99.90;;;;;;4952571;28;20432;-70
2022/03/16 06:38:45;;;;;;;18.20;3.45;;;4.00;99.90;;;;;;4954763;28;20630;-70
2022/03/16 06:41:10;;;;;;;2.22;1.98;;;4.00;99.90;;;;;;4980378;28;20054;-70
2022/03/16 06:43:36;;;;;;;9.57;4.93;;;4.10;99.90;;;;;;4958807;28;20043;-70
2022/03/16 06:46:02;;;;;;;0.95;0.95;;;4.10;99.90;;;;;;4967212;28;20042;-70
2022/03/16 06:48:28;;;;;;;1.17;1.13;;;4.20;99.90;;;;;;4965171;28;20608;-70
2022/03/16 06:50:54;;;;;;;6.10;5.15;;;4.20;99.90;;;;;;4966401;28;20054;-70
2022/03/16 06:53:20;;;;;;;4.75;3.95;;;4.20;99.90;;;;;;4953254;28;20066;-69
2022/03/16 06:55:45;;;;;;;3.10;1.98;;;4.30;99.90;;;;;;4965945;28;20525;-69
2022/03/16 06:58:11;;;;;;;2.90;2.65;;;4.30;99.90;;;;;;4967268;28;20045;-70
2022/03/16 07:00:36;;;;;;;3.42;3.17;;;4.30;99.90;;;;;;4958741;28;20027;-70
2022/03/16 07:03:05;;;;;;;7.20;4.57;;;4.40;99.90;;;;;;4966129;28;20080;-70
2022/03/16 07:05:36;;;;;;;3.75;2.33;;;4.40;99.90;;;;;;4952086;28;20089;-70
2022/03/16 07:08:07;;;;;;;4.15;3.03;;;4.50;99.90;;;;;;4961161;28;20395;-70
2022/03/16 07:10:34;;;;;;;0.93;0.93;;;4.50;99.90;;;;;;4967492;28;20050;-70
2022/03/16 07:13:00;;;;;;;3.38;2.47;;;4.60;99.90;;;;;;4966378;28;20503;-70
2022/03/16 07:15:27;;;;;;;0.77;0.77;;;4.70;99.90;;;;;;4967597;28;20042;-70
2022/03/16 07:17:52;;;;;;;10.77;6.40;;;4.80;99.90;;;;;;4966791;28;20054;-70
2022/03/16 07:20:18;;;;;;;14.38;9.27;;;4.90;99.90;;;;;;4966071;28;20504;-70
2022/03/16 07:22:44;;;;;;;5.82;3.60;;;5.00;99.90;;;;;;4966626;28;20133;-70
2022/03/16 07:25:10;;;;;;;8.90;2.50;;;5.10;99.90;;;;;;4966876;28;20039;-70
2022/03/16 07:27:40;;;;;;;12.93;6.57;;;5.20;99.90;;;;;;4966008;28;20042;-70
2022/03/16 07:30:08;;;;;;;4.18;2.88;;;5.30;99.90;;;;;;4965735;28;20054;-70
2022/03/16 07:32:41;;;;;;;7.22;4.35;;;5.40;99.90;;;;;;4954282;28;20050;-70
2022/03/16 07:35:11;;;;;;;16.02;8.05;;;5.50;99.90;;;;;;4951712;28;20054;-68
2022/03/16 07:37:38;;;;;;;6.43;3.75;;;5.60;99.90;;;;;;4961886;28;20084;-68
2022/03/16 07:40:04;;;;;;;4.13;2.72;;;5.60;99.90;;;;;;4962685;28;20395;-68
2022/03/16 07:42:30;;;;;;;16.50;8.70;;;5.70;99.90;;;;;;4966116;28;20043;-68
2022/03/16 07:44:57;;;;;;;11.77;7.43;;;5.80;99.90;;;;;;4962108;28;20047;-68
2022/03/16 07:47:25;;;;;;;6.45;3.83;;;5.80;99.90;;;;;;4966605;28;20058;-69
2022/03/16 07:49:52;;;;;;;6.05;4.60;;;5.90;99.90;;;;;;4937599;28;20046;-69
2022/03/16 07:52:17;;;;;;;16.85;9.43;;;6.00;99.90;;;;;;4953965;28;20074;-69
2022/03/16 07:54:43;;;;;;;15.90;8.27;;;6.10;99.90;;;;;;4956503;28;20038;-69
2022/03/16 07:57:09;;;;;;;13.63;8.88;;;6.20;99.90;;;;;;4981188;28;20490;-69
2022/03/16 07:59:35;;;;;;;10.18;7.78;;;6.30;99.90;;;;;;4938941;28;20038;-69
2022/03/16 08:02:00;;;;;;;16.67;8.50;;;6.30;99.90;;;;;;4955018;28;20173;-69
2022/03/16 08:04:26;;;;;;;4.03;3.08;;;6.50;99.90;;;;;;4954006;28;20054;-69
2022/03/16 08:06:52;;;;;;;5.93;3.40;;;6.50;99.90;;;;;;4951838;28;20050;-69
2022/03/16 08:09:17;;;;;;;11.68;5.05;;;6.60;99.90;;;;;;4950655;28;20392;-69
2022/03/16 08:11:43;;;;;;;8.20;4.68;;;6.70;99.90;;;;;;4966537;28;20412;-69
2022/03/16 08:14:08;;;;;;;13.73;8.77;;;6.80;99.90;;;;;;4949121;28;20128;-69
2022/03/16 08:16:34;;;;;;;4.05;2.45;;;6.90;99.90;;;;;;4984050;28;20042;-69
2022/03/16 08:19:00;;;;;;;9.35;5.20;;;7.00;99.90;;;;;;4976236;28;20045;-69
2022/03/16 08:21:25;;;;;;;8.25;5.30;;;7.10;99.90;;;;;;4951089;28;20045;-69
2022/03/16 08:23:51;;;;;;;13.65;7.10;;;7.30;99.90;;;;;;4966010;28;20057;-69
2022/03/16 08:26:17;;;;;;;20.33;8.80;;;7.40;99.90;;;;;;4968746;28;20129;-69
2022/03/16 08:28:45;;;;;;;10.52;6.13;;;7.60;99.90;;;;;;4946333;28;20778;-69
2022/03/16 08:31:11;;;;;;;12.48;6.32;;;7.80;99.90;;;;;;4964066;28;20042;-69
2022/03/16 08:33:37;;;;;;;15.13;9.68;;;7.90;99.90;;;;;;4950977;28;20034;-69
2022/03/16 08:36:07;;;;;;;6.28;4.60;;;8.10;99.90;;;;;;4956029;28;20049;-69
2022/03/16 08:38:36;;;;;;;14.95;6.60;;;8.30;99.90;;;;;;4968455;28;20038;-69
2022/03/16 08:41:02;;;;;;;19.92;7.00;;;8.40;99.90;;;;;;4964802;28;20046;-69
2022/03/16 08:43:28;;;;;;;12.48;8.45;;;8.50;99.90;;;;;;4970969;28;20046;-69
2022/03/16 08:45:53;;;;;;;12.80;7.50;;;8.60;99.90;;;;;;4973406;28;20054;-69
2022/03/16 08:48:19;;;;;;;11.73;6.45;;;8.90;99.90;;;;;;4988811;28;20042;-69
2022/03/16 08:50:45;;;;;;;16.05;9.35;;;9.40;99.90;;;;;;4969869;28;20065;-69
2022/03/16 08:53:10;;;;;;;10.98;6.45;;;10.10;99.90;;;;;;4953858;28;20491;-69
2022/03/16 08:55:37;;;;;;;25.15;8.23;;;10.70;99.90;;;;;;4966812;28;20038;-69
2022/03/16 08:58:03;;;;;;;20.80;9.02;;;11.20;99.90;;;;;;4965996;28;20043;-69
2022/03/16 09:00:29;;;;;;;12.07;8.13;;;11.80;99.90;;;;;;4965494;28;20046;-69
2022/03/16 09:02:56;;;;;;;19.02;8.88;;;12.10;99.90;;;;;;4964301;28;20092;-69
2022/03/16 09:05:22;;;;;;;8.90;5.30;;;12.40;99.90;;;;;;4966618;28;20691;-69
2022/03/16 09:07:48;;;;;;;11.25;7.55;;;12.80;99.90;;;;;;4967512;28;20269;-69
2022/03/16 09:10:14;;;;;;;13.27;6.72;;;13.10;99.90;;;;;;4978664;28;20415;-69
2022/03/16 09:12:40;;;;;;;12.02;6.35;;;13.30;99.90;;;;;;4982293;28;20038;-69
2022/03/16 09:15:06;;;;;;;8.90;6.05;;;13.50;99.90;;;;;;4960354;28;20518;-69
2022/03/16 09:17:33;;;;;;;10.00;5.35;;;13.50;99.90;;;;;;4964384;28;20373;-69
2022/03/16 09:19:59;;;;;;;4.38;3.15;;;13.30;99.90;;;;;;4964641;28;20042;-69
2022/03/16 09:22:24;;;;;;;17.40;9.43;;;13.10;99.90;;;;;;4983545;28;20125;-69
2022/03/16 09:24:50;;;;;;;13.18;8.70;;;13.00;99.90;;;;;;4965062;28;20138;-69
2022/03/16 09:27:16;;;;;;;248.68;27.20;;;12.80;99.90;;;;;;4965278;28;20035;-69
2022/03/16 09:29:46;;;;;;;25.25;10.50;;;12.90;99.90;;;;;;4964111;28;20546;-69
2022/03/16 09:32:12;;;;;;;16.75;8.90;;;13.00;99.90;;;;;;4972135;28;20126;-69
2022/03/16 09:34:39;;;;;;;10.90;6.85;;;13.00;99.90;;;;;;4969562;28;20058;-69
2022/03/16 09:37:05;;;;;;;9.90;6.88;;;13.30;99.90;;;;;;4968720;28;20050;-69
2022/03/16 09:39:31;;;;;;;32.60;15.32;;;13.60;99.90;;;;;;4956749;28;20050;-69
2022/03/16 09:41:57;;;;;;;7.10;4.57;;;13.90;99.90;;;;;;4959438;28;20062;-69
2022/03/16 09:44:24;;;;;;;98.13;9.13;;;13.90;99.90;;;;;;4962412;28;20088;-69
2022/03/16 09:46:52;;;;;;;213.82;16.73;;;14.00;99.90;;;;;;4943585;28;20042;-69
2022/03/16 09:49:18;;;;;;;13.65;7.00;;;13.90;99.90;;;;;;4958516;28;20051;-69
2022/03/16 09:51:44;;;;;;;9.15;4.35;;;14.00;99.90;;;;;;4966877;28;20057;-69
2022/03/16 09:54:09;;;;;;;10.15;6.90;;;14.30;99.90;;;;;;4980016;28;20046;-70
2022/03/16 09:56:35;;;;;;;5.35;4.72;;;14.40;99.90;;;;;;4960734;28;20077;-67
2022/03/16 09:59:02;;;;;;;9.88;6.32;;;14.30;99.90;;;;;;4960483;28;20030;-69
2022/03/16 10:01:28;;;;;;;12.13;5.03;;;14.30;99.90;;;;;;4963286;28;20058;-69
2022/03/16 10:03:59;;;;;;;10.05;6.63;;;14.30;99.90;;;;;;4956085;28;20105;-69
2022/03/16 10:06:25;;;;;;;7.28;5.22;;;14.50;99.90;;;;;;4961773;28;20046;-69
2022/03/16 10:14:19;;;;;;;8.02;4.70;;;14.20;99.40;;;;;;4963409;28;20042;-69
2022/03/16 10:19:49;;;;;;;8.50;3.97;;;14.20;99.90;;;;;;4962952;28;20526;-69
2022/03/16 10:22:25;;;;;;;8.15;4.68;;;14.20;99.60;;;;;;4964490;28;20541;-69
2022/03/16 10:24:58;;;;;;;6.32;3.97;;;14.30;99.50;;;;;;4957178;28;20050;-69
2022/03/16 10:27:23;;;;;;;7.25;4.50;;;14.30;99.30;;;;;;4960907;28;20053;-69
2022/03/16 10:29:53;;;;;;;10.90;5.22;;;14.20;99.90;;;;;;4959264;28;20034;-69
2022/03/16 10:32:21;;;;;;;6.28;4.28;;;14.20;98.50;;;;;;4961916;28;20057;-69
2022/03/16 10:34:55;;;;;;;3.13;2.00;;;14.10;99.80;;;;;;4976967;28;20038;-69
2022/03/16 10:37:23;;;;;;;13.07;5.07;;;14.00;99.00;;;;;;4982800;28;20533;-69
2022/03/16 10:39:52;;;;;;;6.40;3.70;;;14.00;97.40;;;;;;4953309;28;20494;-69
2022/03/16 10:48:19;;;;;;;7.05;5.20;;;13.80;97.70;;;;;;4959923;28;20054;-68
2022/03/16 10:50:46;;;;;;;4.75;2.70;;;13.80;95.70;;;;;;4958238;28;20178;-68
2022/03/16 10:53:16;;;;;;;2.90;1.88;;;13.80;95.20;;;;;;4964666;28;20129;-68
2022/03/16 10:55:43;;;;;;;6.68;3.80;;;13.90;96.40;;;;;;4980682;28;20061;-68
2022/03/16 10:58:11;;;;;;;5.78;3.85;;;14.10;95.10;;;;;;4957477;28;20085;-69
2022/03/16 11:00:38;;;;;;;8.95;4.22;;;14.20;94.00;;;;;;4945266;28;20045;-68
2022/03/16 11:03:15;;;;;;;8.88;4.25;;;14.20;92.90;;;;;;4960138;28;20039;-69
2022/03/16 11:05:42;;;;;;;8.98;4.32;;;14.20;93.50;;;;;;4958205;28;20125;-69
2022/03/16 11:08:09;;;;;;;3.60;2.50;;;14.20;94.10;;;;;;4957938;28;20061;-69
2022/03/16 11:10:40;;;;;;;6.50;4.38;;;14.30;92.60;;;;;;4957112;28;20042;-69
2022/03/16 11:15:53;;;;;;;10.00;4.85;;;14.40;92.90;;;;;;4957461;28;20050;-69
2022/03/16 11:18:19;;;;;;;9.65;4.65;;;14.40;93.70;;;;;;4965260;28;20089;-70
2022/03/16 11:20:56;;;;;;;6.60;3.70;;;14.60;92.10;;;;;;4959108;28;20030;-70
2022/03/16 11:26:51;;;;;;;7.25;3.85;;;14.60;93.30;;;;;;4981731;28;20050;-69
2022/03/16 11:29:21;;;;;;;10.13;4.80;;;14.70;93.30;;;;;;4980677;28;20046;-69
2022/03/16 11:31:48;;;;;;;11.10;6.07;;;14.80;91.80;;;;;;4969233;28;20038;-69
2022/03/16 11:34:21;;;;;;;6.28;4.05;;;14.90;88.00;;;;;;4964604;28;20074;-70
2022/03/16 11:36:59;;;;;;;12.75;6.95;;;14.90;91.70;;;;;;4962145;28;20571;-70
2022/03/16 11:39:25;;;;;;;27.52;9.05;;;15.00;86.30;;;;;;4950499;28;20434;-70
2022/03/16 11:41:53;;;;;;;4.13;3.13;;;15.00;86.70;;;;;;4945582;28;20051;-69
2022/03/16 11:44:25;;;;;;;9.55;4.95;;;15.10;89.20;;;;;;4973215;28;20060;-70
2022/03/16 11:46:52;;;;;;;8.15;4.25;;;15.20;88.80;;;;;;4961536;28;20046;-70
2022/03/16 11:49:30;;;;;;;8.90;3.13;;;15.30;85.30;;;;;;4965357;28;20046;-70
2022/03/16 11:51:58;;;;;;;7.75;4.03;;;15.30;78.40;;;;;;4965473;28;20136;-70
2022/03/16 11:54:39;;;;;;;10.60;3.45;;;15.40;80.90;;;;;;4963057;28;20053;-70
2022/03/16 11:57:05;;;;;;;3.47;2.67;;;15.30;79.70;;;;;;4952411;28;20035;-70
2022/03/16 11:59:31;;;;;;;7.00;4.95;;;15.30;81.70;;;;;;4961271;28;20089;-70
2022/03/16 12:02:18;;;;;;;4.50;2.97;;;15.30;79.70;;;;;;4964735;28;20045;-67
2022/03/16 12:04:48;;;;;;;4.65;3.60;;;15.40;79.40;;;;;;4945405;28;20129;-68
2022/03/16 12:07:22;;;;;;;5.22;3.20;;;15.40;80.70;;;;;;4971927;28;20082;-68
2022/03/16 12:09:52;;;;;;;11.32;6.00;;;15.50;81.00;;;;;;4987671;28;20055;-68
2022/03/16 12:12:59;;;;;;;7.05;4.15;;;15.50;79.40;;;;;;4960935;28;20046;-68
2022/03/16 12:15:25;;;;;;;11.13;4.38;;;15.50;79.80;;;;;;4892341;29;20089;-68
2022/03/16 12:17:51;;;;;;;3.08;2.75;;;15.60;81.90;;;;;;4890503;29;20072;-68
2022/03/16 12:20:23;;;;;;;9.93;4.05;;;15.60;78.60;;;;;;4892408;29;20066;-68
2022/03/16 12:22:57;;;;;;;6.22;4.00;;;15.70;77.40;;;;;;4891476;29;20040;-68
2022/03/16 12:25:25;;;;;;;7.72;4.03;;;15.70;75.80;;;;;;4876196;29;20092;-68
2022/03/16 12:30:50;;;;;;;7.10;4.38;;;15.50;74.20;;;;;;4891481;29;20449;-69
2022/03/16 12:33:22;;;;;;;10.35;5.63;;;15.40;75.20;;;;;;4892975;29;20056;-70
2022/03/16 12:35:53;;;;;;;5.35;3.17;;;15.30;74.90;;;;;;4893296;29;20044;-70
2022/03/16 12:38:21;;;;;;;2.80;1.90;;;15.30;78.10;;;;;;4878386;29;20048;-70
2022/03/16 12:43:32;;;;;;;8.75;4.53;;;15.50;76.50;;;;;;4890684;29;20079;-68
2022/03/16 12:46:24;;;;;;;4.45;3.72;;;15.60;78.30;;;;;;4924658;28;20469;-68
2022/03/16 12:48:54;;;;;;;5.82;3.03;;;15.60;74.10;;;;;;4965912;28;20042;-68
2022/03/16 12:51:39;;;;;;;6.60;4.18;;;15.50;76.20;;;;;;4988661;28;20033;-68
2022/03/16 12:54:06;;;;;;;11.68;3.80;;;15.60;71.90;;;;;;4972143;28;20046;-68
2022/03/16 12:56:45;;;;;;;5.82;2.88;;;15.60;71.80;;;;;;4988960;28;20062;-68
2022/03/16 12:59:11;;;;;;;6.10;3.30;;;15.50;72.30;;;;;;4986550;28;20521;-68
2022/03/16 13:01:38;;;;;;;7.55;5.10;;;15.60;71.60;;;;;;4953034;28;20564;-68
2022/03/16 13:04:06;;;;;;;7.15;3.47;;;15.50;68.60;;;;;;4966077;28;20162;-68
2022/03/16 13:06:35;;;;;;;4.63;3.17;;;15.40;69.80;;;;;;4961588;28;20104;-68
2022/03/16 13:09:06;;;;;;;7.78;4.68;;;15.40;69.30;;;;;;4969061;28;20050;-68
2022/03/16 13:11:32;;;;;;;4.93;3.25;;;15.30;69.20;;;;;;4982055;28;20047;-68
2022/03/16 13:14:02;;;;;;;9.73;5.30;;;15.30;71.40;;;;;;4954896;28;20062;-68
2022/03/16 13:16:40;;;;;;;3.15;2.50;;;15.40;70.20;;;;;;4987035;28;20427;-68
2022/03/16 13:19:07;;;;;;;5.88;4.22;;;15.40;70.60;;;;;;4987281;28;20697;-68